createdAt,value
2023-12-30T00:01:54.516Z,1.30
2023-12-30T00:04:21.884Z,1.00
2023-12-30T00:06:51.198Z,1.20
2023-12-30T00:09:18.595Z,1.30
2023-12-30T00:11:57.251Z,1.47
2023-12-30T00:14:30.158Z,1.10
2023-12-30T00:17:03.381Z,1.30
2023-12-30T00:19:59.665Z,1.10
2023-12-30T00:25:17.814Z,1.93
2023-12-30T00:27:45.033Z,1.10
2023-12-30T00:30:14.245Z,1.37
2023-12-30T00:32:41.145Z,1.77
2023-12-30T00:35:08.646Z,1.87
2023-12-30T00:37:35.528Z,1.20
2023-12-30T00:40:02.298Z,1.10
2023-12-30T00:42:28.958Z,1.30
2023-12-30T00:44:55.653Z,1.10
2023-12-30T00:47:22.747Z,1.30
2023-12-30T00:49:49.621Z,1.60
2023-12-30T00:52:16.788Z,1.30
2023-12-30T00:54:51.237Z,1.20
2023-12-30T00:57:18.542Z,2.20
2023-12-30T00:59:45.248Z,1.63
2023-12-30T01:02:12.133Z,1.30
2023-12-30T01:04:39.412Z,1.20
2023-12-30T01:07:06.166Z,1.40
2023-12-30T01:09:33.546Z,1.47
2023-12-30T01:12:00.405Z,1.50
2023-12-30T01:14:27.088Z,1.30
2023-12-30T01:16:53.734Z,1.40
2023-12-30T01:19:20.490Z,1.40
2023-12-30T01:21:47.928Z,1.53
2023-12-30T01:24:14.675Z,2.07
2023-12-30T01:26:41.357Z,1.10
2023-12-30T01:29:08.560Z,1.20
2023-12-30T01:31:35.671Z,1.00
2023-12-30T01:34:02.584Z,1.40
2023-12-30T01:36:29.796Z,1.20
2023-12-30T01:38:56.537Z,1.00
2023-12-30T01:41:23.312Z,1.20
2023-12-30T01:43:50.040Z,1.30
2023-12-30T01:46:17.138Z,1.20
2023-12-30T01:48:44.003Z,1.30
2023-12-30T01:51:24.044Z,1.10
2023-12-30T01:53:53.453Z,1.17
2023-12-30T01:56:20.236Z,1.23
2023-12-30T01:58:46.995Z,1.00
2023-12-30T02:01:15.307Z,1.20
2023-12-30T02:03:43.156Z,1.30
2023-12-30T02:06:09.972Z,1.13
2023-12-30T02:08:36.815Z,1.13
2023-12-30T02:11:04.668Z,1.10
2023-12-30T02:13:32.036Z,1.10
2023-12-30T02:15:58.797Z,1.10
2023-12-30T02:18:25.544Z,1.33
2023-12-30T02:20:52.228Z,1.33
2023-12-30T02:23:18.955Z,1.10
2023-12-30T02:25:46.063Z,1.13
2023-12-30T02:28:13.074Z,1.43
2023-12-30T02:30:39.821Z,1.07
2023-12-30T02:33:07.543Z,1.20
2023-12-30T02:35:34.471Z,0.90
2023-12-30T02:38:01.976Z,1.03
2023-12-30T02:40:28.724Z,1.20
2023-12-30T02:42:55.644Z,1.00
2023-12-30T02:45:22.437Z,1.40
2023-12-30T02:47:49.288Z,1.00
2023-12-30T02:50:16.154Z,1.10
2023-12-30T02:52:42.861Z,1.03
2023-12-30T02:55:09.768Z,1.20
2023-12-30T02:57:48.285Z,1.10
2023-12-30T03:00:18.063Z,1.40
2023-12-30T03:02:44.973Z,1.10
2023-12-30T03:05:12.589Z,1.00
2023-12-30T03:07:39.585Z,1.20
2023-12-30T03:10:07.071Z,1.10
2023-12-30T03:12:33.889Z,1.20
2023-12-30T03:15:01.206Z,1.00
2023-12-30T03:17:28.060Z,1.23
2023-12-30T03:19:54.972Z,1.10
2023-12-30T03:22:21.849Z,1.30
2023-12-30T03:24:48.637Z,0.93
2023-12-30T03:27:15.532Z,1.23
2023-12-30T03:29:44.315Z,1.10
2023-12-30T03:32:11.643Z,1.23
2023-12-30T03:34:38.860Z,1.10
2023-12-30T03:37:05.627Z,1.10
2023-12-30T03:39:32.366Z,0.90
2023-12-30T03:41:59.205Z,1.00
2023-12-30T03:44:25.906Z,1.00
2023-12-30T03:46:52.643Z,0.90
2023-12-30T03:49:19.443Z,0.90
2023-12-30T03:51:46.227Z,2.10
2023-12-30T03:54:12.929Z,0.90
2023-12-30T03:56:40.692Z,0.80
2023-12-30T03:59:07.556Z,1.13
2023-12-30T04:01:34.482Z,1.30
2023-12-30T04:04:01.426Z,1.10
2023-12-30T04:06:28.136Z,1.03
2023-12-30T04:08:54.882Z,0.90
2023-12-30T04:11:21.643Z,0.73
2023-12-30T04:13:48.423Z,0.80
2023-12-30T04:16:15.334Z,0.93
2023-12-30T04:18:42.115Z,0.90
2023-12-30T04:21:08.952Z,1.00
2023-12-30T04:23:36.347Z,1.20
2023-12-30T04:26:03.191Z,0.90
2023-12-30T04:28:29.991Z,1.10
2023-12-30T04:30:56.974Z,0.80
2023-12-30T04:33:23.904Z,1.00
2023-12-30T04:35:50.729Z,0.90
2023-12-30T04:38:19.442Z,1.20
2023-12-30T04:40:46.267Z,0.90
2023-12-30T04:43:13.358Z,1.53
2023-12-30T04:45:40.127Z,1.10
2023-12-30T04:48:07.218Z,0.93
2023-12-30T04:50:34.173Z,1.00
2023-12-30T04:53:01.160Z,1.10
2023-12-30T04:55:28.149Z,0.90
2023-12-30T04:57:54.895Z,0.90
2023-12-30T05:00:23.739Z,1.10
2023-12-30T05:02:50.936Z,1.10
2023-12-30T05:05:17.881Z,1.23
2023-12-30T05:07:44.607Z,0.97
2023-12-30T05:10:12.053Z,1.23
2023-12-30T05:12:38.937Z,1.07
2023-12-30T05:15:06.188Z,1.07
2023-12-30T05:17:33.251Z,1.00
2023-12-30T05:20:00.091Z,1.20
2023-12-30T05:22:26.812Z,1.00
2023-12-30T05:24:53.533Z,1.13
2023-12-30T05:27:20.250Z,2.20
2023-12-30T05:29:46.960Z,0.97
2023-12-30T05:32:13.641Z,0.90
2023-12-30T05:34:40.545Z,1.20
2023-12-30T05:37:07.422Z,1.00
2023-12-30T05:39:34.346Z,1.00
2023-12-30T05:42:01.062Z,1.07
2023-12-30T05:44:27.763Z,2.13
2023-12-30T05:46:54.513Z,1.30
2023-12-30T05:49:21.360Z,1.20
2023-12-30T05:51:48.228Z,1.27
2023-12-30T05:54:14.892Z,2.00
2023-12-30T05:56:41.550Z,1.17
2023-12-30T05:59:08.326Z,1.63
2023-12-30T06:01:35.458Z,1.50
2023-12-30T06:04:02.253Z,1.60
2023-12-30T06:06:29.873Z,1.37
2023-12-30T06:08:58.067Z,1.37
2023-12-30T06:11:24.863Z,1.23
2023-12-30T06:13:52.523Z,1.47
2023-12-30T06:16:19.254Z,1.23
2023-12-30T06:18:45.982Z,1.70
2023-12-30T06:21:12.789Z,1.10
2023-12-30T06:23:39.556Z,1.20
2023-12-30T06:26:06.339Z,2.13
2023-12-30T06:28:33.074Z,0.87
2023-12-30T06:30:59.919Z,1.10
2023-12-30T06:33:26.835Z,1.00
2023-12-30T06:35:53.644Z,1.10
2023-12-30T06:38:20.379Z,1.00
2023-12-30T06:40:47.309Z,1.40
2023-12-30T06:43:14.833Z,1.30
2023-12-30T06:45:41.674Z,1.00
2023-12-30T06:48:08.650Z,1.33
2023-12-30T06:50:36.134Z,0.87
2023-12-30T06:53:03.097Z,1.20
2023-12-30T06:55:35.449Z,0.70
2023-12-30T06:58:09.444Z,1.00
2023-12-30T07:00:36.801Z,0.97
2023-12-30T07:03:04.077Z,1.10
2023-12-30T07:08:03.748Z,1.30
2023-12-30T07:10:30.564Z,1.23
2023-12-30T07:12:57.393Z,0.90
2023-12-30T07:15:24.162Z,1.80
2023-12-30T07:17:51.058Z,0.90
2023-12-30T07:20:17.917Z,1.20
2023-12-30T07:22:45.022Z,1.27
2023-12-30T07:25:12.207Z,1.07
2023-12-30T07:27:39.094Z,0.90
2023-12-30T07:30:06.604Z,0.93
2023-12-30T07:32:33.577Z,0.90
2023-12-30T07:35:01.072Z,1.13
2023-12-30T07:37:28.746Z,0.90
2023-12-30T07:39:55.623Z,1.20
2023-12-30T07:42:23.671Z,0.90
2023-12-30T07:44:52.186Z,1.00
2023-12-30T07:47:18.843Z,0.93
2023-12-30T07:49:45.874Z,1.10
2023-12-30T07:52:12.665Z,2.40
2023-12-30T07:54:39.387Z,0.90
2023-12-30T07:57:06.226Z,0.90
2023-12-30T07:59:32.908Z,0.80
2023-12-30T08:01:59.633Z,1.53
2023-12-30T08:04:26.474Z,1.13
2023-12-30T08:06:54.178Z,0.70
2023-12-30T08:09:20.859Z,1.00
2023-12-30T08:11:55.202Z,1.43
2023-12-30T08:14:28.712Z,1.30
2023-12-30T08:16:55.465Z,1.30
2023-12-30T08:19:22.197Z,1.17
2023-12-30T08:21:49.016Z,1.00
2023-12-30T08:24:17.592Z,1.50
2023-12-30T08:26:44.520Z,1.20
2023-12-30T08:29:11.350Z,1.10
2023-12-30T08:31:38.309Z,1.20
2023-12-30T08:34:05.596Z,1.00
2023-12-30T08:36:32.515Z,1.30
2023-12-30T08:38:59.210Z,0.90
2023-12-30T08:41:29.024Z,1.13
2023-12-30T08:43:58.651Z,1.67
2023-12-30T08:46:25.553Z,1.10
2023-12-30T08:48:52.377Z,1.00
2023-12-30T08:51:19.296Z,0.80
2023-12-30T08:53:46.043Z,1.20
2023-12-30T08:56:12.922Z,1.17
2023-12-30T08:58:39.820Z,1.77
2023-12-30T09:01:07.389Z,1.00
2023-12-30T09:03:34.290Z,0.90
2023-12-30T09:06:01.096Z,0.90
2023-12-30T09:08:28.215Z,0.90
2023-12-30T09:10:55.292Z,1.30
2023-12-30T09:13:22.532Z,0.80
2023-12-30T09:15:49.490Z,0.87
2023-12-30T09:18:16.663Z,0.80
2023-12-30T09:20:44.389Z,0.70
2023-12-30T09:23:11.096Z,0.90
2023-12-30T09:25:37.898Z,0.80
2023-12-30T09:28:04.932Z,1.00
2023-12-30T09:30:31.696Z,0.93
2023-12-30T09:32:58.615Z,1.00
2023-12-30T09:35:25.399Z,1.23
2023-12-30T09:37:52.180Z,1.40
2023-12-30T09:40:19.238Z,1.40
2023-12-30T09:42:49.566Z,1.10
2023-12-30T09:45:16.914Z,1.20
2023-12-30T09:47:45.515Z,1.33
2023-12-30T09:50:12.267Z,1.50
2023-12-30T09:52:39.709Z,1.20
2023-12-30T09:55:06.702Z,1.63
2023-12-30T09:57:33.440Z,1.53
2023-12-30T10:00:00.592Z,1.10
2023-12-30T10:02:27.358Z,1.20
2023-12-30T10:04:57.897Z,1.03
2023-12-30T10:07:24.857Z,1.30
2023-12-30T10:09:53.122Z,1.23
2023-12-30T10:12:19.892Z,1.20
2023-12-30T10:14:46.838Z,1.10
2023-12-30T10:17:14.744Z,1.13
2023-12-30T10:19:41.624Z,0.83
2023-12-30T10:22:08.557Z,0.80
2023-12-30T10:24:35.820Z,0.97
2023-12-30T10:27:05.737Z,1.63
2023-12-30T10:29:42.952Z,0.70
2023-12-30T10:32:21.928Z,0.70
2023-12-30T10:34:49.044Z,0.67
2023-12-30T10:37:16.051Z,0.73
2023-12-30T10:39:43.168Z,0.80
2023-12-30T10:42:11.597Z,0.83
2023-12-30T10:44:38.324Z,1.60
2023-12-30T10:47:05.817Z,0.70
2023-12-30T10:49:32.699Z,0.67
2023-12-30T10:52:02.589Z,0.77
2023-12-30T10:54:35.634Z,1.77
2023-12-30T10:57:04.558Z,0.50
2023-12-30T10:59:32.392Z,1.03
2023-12-30T11:01:59.570Z,0.70
2023-12-30T11:04:29.367Z,1.57
2023-12-30T11:07:01.873Z,0.90
2023-12-30T11:09:29.445Z,0.40
2023-12-30T11:11:57.593Z,0.80
2023-12-30T11:14:25.297Z,0.40
2023-12-30T11:16:52.071Z,2.10
2023-12-30T11:19:32.956Z,1.23
2023-12-30T11:22:01.729Z,0.60
2023-12-30T11:24:28.743Z,0.60
2023-12-30T11:26:59.214Z,0.80
2023-12-30T11:29:41.285Z,0.93
2023-12-30T11:32:08.338Z,0.50
2023-12-30T11:34:35.876Z,0.87
2023-12-30T11:37:04.182Z,0.33
2023-12-30T11:39:32.470Z,0.67
2023-12-30T11:42:00.538Z,0.50
2023-12-30T11:44:31.258Z,0.50
2023-12-30T11:46:58.932Z,0.63
2023-12-30T11:49:27.120Z,0.73
2023-12-30T11:52:05.153Z,1.23
2023-12-30T11:54:36.834Z,0.40
2023-12-30T11:57:07.537Z,0.60
2023-12-30T11:59:34.572Z,0.97
2023-12-30T12:02:15.803Z,1.67
2023-12-30T12:04:43.380Z,0.47
2023-12-30T12:07:12.053Z,0.67
2023-12-30T12:09:41.485Z,0.50
2023-12-30T12:12:08.599Z,1.03
2023-12-30T12:14:35.787Z,0.73
2023-12-30T12:17:08.653Z,0.47
2023-12-30T12:19:37.618Z,0.50
2023-12-30T12:22:04.616Z,0.50
2023-12-30T12:24:33.049Z,0.40
2023-12-30T12:26:59.763Z,1.03
2023-12-30T12:29:26.547Z,0.77
2023-12-30T12:31:53.381Z,0.87
2023-12-30T12:34:24.875Z,0.80
2023-12-30T12:36:52.264Z,0.63
2023-12-30T12:39:19.088Z,0.50
2023-12-30T12:41:46.964Z,0.70
2023-12-30T12:44:13.814Z,0.67
2023-12-30T12:46:40.724Z,0.63
2023-12-30T12:49:07.726Z,0.60
2023-12-30T12:51:37.934Z,0.50
2023-12-30T12:54:04.760Z,0.30
2023-12-30T12:56:31.528Z,0.40
2023-12-30T12:58:59.130Z,0.60
2023-12-30T13:01:26.011Z,0.40
2023-12-30T13:03:52.915Z,0.33
2023-12-30T13:06:22.490Z,0.50
2023-12-30T13:08:53.392Z,0.50
2023-12-30T13:11:33.498Z,0.40
2023-12-30T13:14:01.045Z,0.50
2023-12-30T13:16:31.642Z,0.40
2023-12-30T13:18:58.604Z,0.43
2023-12-30T13:21:25.401Z,0.97
2023-12-30T13:23:52.199Z,0.50
2023-12-30T13:26:21.840Z,0.93
2023-12-30T13:28:48.658Z,0.53
2023-12-30T13:31:21.716Z,0.43
2023-12-30T13:33:51.423Z,0.50
2023-12-30T13:36:19.330Z,0.40
2023-12-30T13:38:53.008Z,0.50
2023-12-30T13:41:25.795Z,0.60
2023-12-30T13:43:55.860Z,0.67
2023-12-30T13:46:38.004Z,0.60
2023-12-30T13:49:11.357Z,0.70
2023-12-30T13:51:39.387Z,0.53
2023-12-30T13:54:06.177Z,0.60
2023-12-30T13:56:36.957Z,0.60
2023-12-30T13:59:09.526Z,1.67
2023-12-30T14:01:39.978Z,2.63
2023-12-30T14:04:08.706Z,1.87
2023-12-30T14:06:41.352Z,1.67
2023-12-30T14:09:20.108Z,1.00
2023-12-30T14:11:52.980Z,1.03
2023-12-30T14:14:21.995Z,0.93
2023-12-30T14:16:51.446Z,1.27
2023-12-30T14:19:18.312Z,1.20
2023-12-30T14:21:45.160Z,1.20
2023-12-30T14:24:16.573Z,0.83
2023-12-30T14:26:43.389Z,1.53
2023-12-30T14:29:10.279Z,2.13
2023-12-30T14:31:37.206Z,0.90
2023-12-30T14:34:04.477Z,0.80
2023-12-30T14:36:31.330Z,1.40
2023-12-30T14:38:58.323Z,1.23
2023-12-30T14:41:25.305Z,1.13
2023-12-30T14:43:52.332Z,1.00
2023-12-30T14:46:20.733Z,1.40
2023-12-30T14:48:48.369Z,1.20
2023-12-30T14:51:15.078Z,1.50
2023-12-30T14:53:42.027Z,1.90
2023-12-30T14:56:08.787Z,1.20
2023-12-30T14:58:35.755Z,1.77
2023-12-30T15:01:02.892Z,1.30
2023-12-30T15:03:29.764Z,1.77
2023-12-30T15:06:00.826Z,1.73
2023-12-30T15:08:27.936Z,2.20
2023-12-30T15:10:56.229Z,1.80
2023-12-30T15:13:24.923Z,2.67
2023-12-30T15:15:51.805Z,1.63
2023-12-30T15:18:22.602Z,1.70
2023-12-30T15:20:49.454Z,2.20
2023-12-30T15:23:16.870Z,1.60
2023-12-30T15:25:43.860Z,1.73
2023-12-30T15:28:11.978Z,1.97
2023-12-30T15:30:38.994Z,1.93
2023-12-30T15:33:08.793Z,1.77
2023-12-30T15:35:36.374Z,1.70
2023-12-30T15:38:06.241Z,1.57
2023-12-30T15:40:35.472Z,1.60
2023-12-30T15:43:07.181Z,1.63
2023-12-30T15:45:36.075Z,2.13
2023-12-30T15:48:03.110Z,1.40
2023-12-30T15:50:30.004Z,1.97
2023-12-30T15:52:58.564Z,1.47
2023-12-30T15:55:28.766Z,1.60
2023-12-30T15:57:55.551Z,1.67
2023-12-30T16:00:22.594Z,1.60
2023-12-30T16:02:49.494Z,1.30
2023-12-30T16:05:16.520Z,1.77
2023-12-30T16:07:44.112Z,2.20
2023-12-30T16:10:11.107Z,1.20
2023-12-30T16:12:38.448Z,1.30
2023-12-30T16:15:05.864Z,1.40
2023-12-30T16:17:32.612Z,1.17
2023-12-30T16:19:59.814Z,1.77
2023-12-30T16:22:27.317Z,1.27
2023-12-30T16:24:56.951Z,1.23
2023-12-30T16:27:23.722Z,1.40
2023-12-30T16:29:50.591Z,1.23
2023-12-30T16:32:17.550Z,1.40
2023-12-30T16:34:44.467Z,1.87
2023-12-30T16:37:11.428Z,1.20
2023-12-30T16:39:38.560Z,1.90
2023-12-30T16:42:05.583Z,1.73
2023-12-30T16:44:32.607Z,3.37
2023-12-30T16:47:00.238Z,1.67
2023-12-30T16:49:27.149Z,1.20
2023-12-30T16:51:54.005Z,1.83
2023-12-30T16:54:20.747Z,1.50
2023-12-30T16:56:47.487Z,1.30
2023-12-30T16:59:14.272Z,1.60
2023-12-30T17:01:43.583Z,1.50
2023-12-30T17:04:10.545Z,1.40
2023-12-30T17:06:38.288Z,1.40
2023-12-30T17:09:05.017Z,1.50
2023-12-30T17:11:32.065Z,1.40
2023-12-30T17:14:00.057Z,1.63
2023-12-30T17:16:26.812Z,1.70
2023-12-30T17:18:53.624Z,1.37
2023-12-30T17:21:20.520Z,1.37
2023-12-30T17:23:47.253Z,2.20
2023-12-30T17:26:14.051Z,1.60
2023-12-30T17:28:40.911Z,1.57
2023-12-30T17:31:09.416Z,1.60
2023-12-30T17:33:36.180Z,2.13
2023-12-30T17:36:03.033Z,2.37
2023-12-30T17:38:30.394Z,2.33
2023-12-30T17:40:57.134Z,2.73
2023-12-30T17:43:24.176Z,2.73
2023-12-30T17:45:50.924Z,2.53
2023-12-30T17:48:17.730Z,2.90
2023-12-30T17:50:44.729Z,3.27
2023-12-30T17:53:14.525Z,3.30
2023-12-30T17:55:42.026Z,3.17
2023-12-30T17:58:09.015Z,3.30
2023-12-30T18:00:36.779Z,3.30
2023-12-30T18:03:05.291Z,3.20
2023-12-30T18:05:32.400Z,3.40
2023-12-30T18:07:59.163Z,3.27
2023-12-30T18:10:26.028Z,3.33
2023-12-30T18:12:52.848Z,3.33
2023-12-30T18:15:20.113Z,3.07
2023-12-30T18:17:47.159Z,3.50
2023-12-30T18:20:18.632Z,3.40
2023-12-30T18:22:45.987Z,2.70
2023-12-30T18:25:14.804Z,3.03
2023-12-30T18:27:41.550Z,3.10
2023-12-30T18:30:08.764Z,2.80
2023-12-30T18:32:35.528Z,2.93
2023-12-30T18:35:03.785Z,2.77
2023-12-30T18:37:30.679Z,3.03
2023-12-30T18:39:57.670Z,2.70
2023-12-30T18:42:24.486Z,3.43
2023-12-30T18:44:51.202Z,3.50
2023-12-30T18:47:18.311Z,3.37
2023-12-30T18:49:45.472Z,2.63
2023-12-30T18:52:12.850Z,3.53
2023-12-30T18:54:39.591Z,2.80
2023-12-30T18:57:06.323Z,2.80
2023-12-30T18:59:33.119Z,3.00
2023-12-30T19:02:01.420Z,2.80
2023-12-30T19:04:30.684Z,4.47
2023-12-30T19:06:57.518Z,3.37
2023-12-30T19:09:24.282Z,3.57
2023-12-30T19:11:51.235Z,4.03
2023-12-30T19:14:18.087Z,4.07
2023-12-30T19:16:44.927Z,3.97
2023-12-30T19:19:11.844Z,5.00
2023-12-30T19:21:39.594Z,4.27
2023-12-30T19:24:08.223Z,4.70
2023-12-30T19:26:36.570Z,4.43
2023-12-30T19:29:04.080Z,4.70
2023-12-30T19:31:31.010Z,4.27
2023-12-30T19:33:57.942Z,5.07
2023-12-30T19:36:25.079Z,5.20
2023-12-30T19:38:53.810Z,5.17
2023-12-30T19:41:20.629Z,5.00
2023-12-30T19:43:47.466Z,5.20
2023-12-30T19:46:14.251Z,6.00
2023-12-30T19:48:41.819Z,5.70
2023-12-30T19:51:08.532Z,5.87
2023-12-30T19:53:35.270Z,5.33
2023-12-30T19:56:02.777Z,5.90
2023-12-30T19:58:31.846Z,5.43
2023-12-30T20:00:58.857Z,5.73
2023-12-30T20:03:25.684Z,6.33
2023-12-30T20:05:53.649Z,8.83
2023-12-30T20:08:20.430Z,5.30
2023-12-30T20:10:47.958Z,6.63
2023-12-30T20:13:15.150Z,6.97
2023-12-30T20:15:41.937Z,6.97
2023-12-30T20:18:08.763Z,7.67
2023-12-30T20:20:35.583Z,7.57
2023-12-30T20:23:02.768Z,7.27
2023-12-30T20:25:31.966Z,7.43
2023-12-30T20:27:59.225Z,6.47
2023-12-30T20:30:27.467Z,6.80
2023-12-30T20:32:54.390Z,6.87
2023-12-30T20:35:21.156Z,6.67
2023-12-30T20:37:47.949Z,6.17
2023-12-30T20:40:15.412Z,5.67
2023-12-30T20:42:42.290Z,6.40
2023-12-30T20:45:09.498Z,6.37
2023-12-30T20:47:37.247Z,5.50
2023-12-30T20:50:04.302Z,5.80
2023-12-30T20:52:32.204Z,5.03
2023-12-30T20:55:03.080Z,5.00
2023-12-30T20:57:29.869Z,5.00
2023-12-30T20:59:56.705Z,5.97
2023-12-30T21:02:23.986Z,5.30
2023-12-30T21:04:55.574Z,4.80
2023-12-30T21:07:22.468Z,4.73
2023-12-30T21:09:49.232Z,4.87
2023-12-30T21:12:15.946Z,4.50
2023-12-30T21:14:42.737Z,4.87
2023-12-30T21:17:09.550Z,5.10
2023-12-30T21:19:36.451Z,5.40
2023-12-30T21:22:03.463Z,4.60
2023-12-30T21:24:30.254Z,4.70
2023-12-30T21:26:57.916Z,4.70
2023-12-30T21:29:24.599Z,5.80
2023-12-30T21:31:51.841Z,4.60
2023-12-30T21:34:18.769Z,4.90
2023-12-30T21:36:45.517Z,4.70
2023-12-30T21:39:13.531Z,4.73
2023-12-30T21:41:40.305Z,4.90
2023-12-30T21:44:07.007Z,5.30
2023-12-30T21:46:33.847Z,4.70
2023-12-30T21:49:01.963Z,5.57
2023-12-30T21:51:28.869Z,4.93
2023-12-30T21:53:55.825Z,4.70
2023-12-30T21:56:24.165Z,4.43
2023-12-30T21:58:51.151Z,4.73
2023-12-30T22:01:17.947Z,5.43
2023-12-30T22:03:44.842Z,5.07
2023-12-30T22:06:11.538Z,5.00
2023-12-30T22:08:38.280Z,4.67
2023-12-30T22:11:05.322Z,4.83
2023-12-30T22:13:32.186Z,3.80
2023-12-30T22:15:59.997Z,4.07
2023-12-30T22:18:26.939Z,4.80
2023-12-30T22:20:53.966Z,4.40
2023-12-30T22:23:20.999Z,4.63
2023-12-30T22:25:47.799Z,4.30
2023-12-30T22:28:14.605Z,4.37
2023-12-30T22:30:41.384Z,5.13
2023-12-30T22:33:09.061Z,5.50
2023-12-30T22:35:36.227Z,5.00
2023-12-30T22:38:03.529Z,4.80
2023-12-30T22:40:30.376Z,5.10
2023-12-30T22:42:57.179Z,4.53
2023-12-30T22:45:24.258Z,4.90
2023-12-30T22:47:51.080Z,4.47
2023-12-30T22:50:18.295Z,5.43
2023-12-30T22:52:45.450Z,5.03
2023-12-30T22:55:12.431Z,4.87
2023-12-30T22:57:39.170Z,5.23
2023-12-30T23:00:13.643Z,4.30
2023-12-30T23:02:40.375Z,4.67
2023-12-30T23:05:07.837Z,4.20
2023-12-30T23:07:34.544Z,5.17
2023-12-30T23:10:01.303Z,4.67
2023-12-30T23:12:28.216Z,4.73
2023-12-30T23:14:54.992Z,4.43
2023-12-30T23:17:21.927Z,5.10
2023-12-30T23:19:48.711Z,5.27
2023-12-30T23:22:15.508Z,4.77
2023-12-30T23:24:42.399Z,5.10
2023-12-30T23:27:10.538Z,4.40
2023-12-30T23:29:39.367Z,4.40
2023-12-30T23:32:06.649Z,4.53
2023-12-30T23:34:42.900Z,4.50
2023-12-30T23:37:15.869Z,4.57
2023-12-30T23:39:43.874Z,4.23
2023-12-30T23:42:11.140Z,4.83
2023-12-30T23:44:38.281Z,4.40
2023-12-30T23:47:05.584Z,5.10
2023-12-30T23:59:59.309Z,4.40
